Time;durP1;ratioP1;P1;durP2;ratioP2;P2;SDS_P1;SDS_P2;PMS_P1;PMS_P2;Temp;Humidity;BMP_temperature;BMP_pressure;BME280_temperature;BME280_humidity;BME280_pressure;Samples;Min_cycle;Max_cycle;Signal;HPM_P1;HPM_P2
2022/10/26 00:00:48;;;;;;;1.60;1.10;;;13.30;98.20;;;;;;4969877;28;20490;-79
2022/10/26 00:03:16;;;;;;;1.60;1.10;;;13.30;98.20;;;;;;4969336;28;20466;-79
2022/10/26 00:05:43;;;;;;;1.57;1.00;;;13.30;98.20;;;;;;4972188;28;20625;-79
2022/10/26 00:08:11;;;;;;;1.60;1.10;;;13.30;98.20;;;;;;4960675;28;20490;-79
2022/10/26 00:10:39;;;;;;;1.57;1.00;;;13.30;98.20;;;;;;4975173;28;20773;-79
2022/10/26 00:13:10;;;;;;;1.57;1.00;;;13.30;98.20;;;;;;4975050;28;20474;-79
2022/10/26 00:15:40;;;;;;;1.53;1.00;;;13.30;98.20;;;;;;4978978;28;21031;-79
2022/10/26 00:18:09;;;;;;;1.57;1.00;;;13.30;98.20;;;;;;4953435;28;20486;-80
2022/10/26 00:20:36;;;;;;;1.57;1.10;;;13.30;98.20;;;;;;4953449;29;20581;-79
2022/10/26 00:23:03;;;;;;;1.60;1.10;;;13.30;98.20;;;;;;4958202;28;20494;-79
2022/10/26 00:25:30;;;;;;;1.57;1.00;;;13.30;98.20;;;;;;4956300;28;20474;-79
2022/10/26 00:27:57;;;;;;;3.83;3.53;;;13.30;98.20;;;;;;4960753;28;20539;-79
2022/10/26 00:30:24;;;;;;;1.60;1.00;;;13.30;98.20;;;;;;4970697;28;20521;-80
2022/10/26 00:32:51;;;;;;;1.50;1.00;;;13.30;98.20;;;;;;4967459;28;20486;-79
2022/10/26 00:35:20;;;;;;;1.57;1.10;;;13.30;98.20;;;;;;4983214;28;20493;-79
2022/10/26 00:37:47;;;;;;;1.53;1.07;;;13.30;98.20;;;;;;4964645;28;20482;-79
2022/10/26 00:40:14;;;;;;;1.53;1.10;;;13.30;98.20;;;;;;4971868;28;20490;-79
2022/10/26 00:42:42;;;;;;;1.60;1.10;;;13.30;98.20;;;;;;4979929;28;20552;-79
2022/10/26 00:45:20;;;;;;;1.53;1.00;;;13.30;98.20;;;;;;4976898;28;20458;-79
2022/10/26 00:47:51;;;;;;;1.60;1.00;;;13.30;98.20;;;;;;5000538;28;20574;-79
2022/10/26 00:50:24;;;;;;;1.57;1.00;;;13.40;98.20;;;;;;4995992;28;20847;-78
2022/10/26 00:52:54;;;;;;;1.60;1.00;;;13.40;98.20;;;;;;4968402;28;20572;-78
2022/10/26 00:55:24;;;;;;;1.50;1.07;;;13.40;98.20;;;;;;4977318;28;20493;-79
2022/10/26 00:57:53;;;;;;;1.60;1.10;;;13.40;98.20;;;;;;4978205;28;20485;-79
2022/10/26 01:00:21;;;;;;;1.60;1.13;;;13.40;98.20;;;;;;4975437;28;20573;-78
2022/10/26 01:02:50;;;;;;;1.57;1.00;;;13.50;98.20;;;;;;4981929;28;20488;-80
2022/10/26 01:05:19;;;;;;;1.53;1.00;;;13.50;98.20;;;;;;4977713;28;20461;-80
2022/10/26 01:07:48;;;;;;;1.57;1.10;;;13.50;98.20;;;;;;4966609;28;20564;-78
2022/10/26 01:10:17;;;;;;;1.57;1.10;;;13.50;98.20;;;;;;4975520;28;20853;-78
2022/10/26 01:12:45;;;;;;;1.53;1.00;;;13.60;98.20;;;;;;4965016;28;20901;-78
2022/10/26 01:15:13;;;;;;;1.53;1.10;;;13.60;98.20;;;;;;4976518;28;20461;-78
2022/10/26 01:17:54;;;;;;;1.53;1.00;;;13.60;98.20;;;;;;4965751;28;20801;-78
2022/10/26 01:20:47;;;;;;;1.53;1.00;;;13.60;98.20;;;;;;4977382;28;21061;-78
2022/10/26 01:23:23;;;;;;;1.57;1.07;;;13.60;98.20;;;;;;4950279;28;20569;-78
2022/10/26 01:26:22;;;;;;;1.57;1.00;;;13.60;98.20;;;;;;4967035;28;20481;-78
2022/10/26 01:29:11;;;;;;;1.57;1.00;;;13.60;98.20;;;;;;4961797;28;20456;-77
2022/10/26 01:31:43;;;;;;;1.57;1.00;;;13.60;98.20;;;;;;4976963;28;20468;-80
2022/10/26 01:34:19;;;;;;;1.53;1.00;;;13.70;98.20;;;;;;4982391;28;20498;-77
2022/10/26 01:36:55;;;;;;;1.60;1.10;;;13.70;98.20;;;;;;4967416;28;20473;-78
2022/10/26 01:39:28;;;;;;;1.60;1.00;;;13.70;98.20;;;;;;4954132;28;20525;-78
2022/10/26 01:42:00;;;;;;;1.60;1.13;;;13.70;98.20;;;;;;4969313;28;21076;-78
2022/10/26 01:44:33;;;;;;;1.60;1.17;;;13.70;98.20;;;;;;4984047;28;20485;-78
2022/10/26 01:47:04;;;;;;;1.50;1.00;;;13.70;98.20;;;;;;4971268;28;20894;-77
2022/10/26 01:49:36;;;;;;;1.50;1.00;;;13.70;98.20;;;;;;4975703;28;20891;-78
2022/10/26 01:52:03;;;;;;;1.60;1.00;;;13.70;98.20;;;;;;4973964;28;20499;-78
2022/10/26 01:54:30;;;;;;;1.60;1.00;;;13.70;98.20;;;;;;4979567;28;20469;-78
2022/10/26 01:57:02;;;;;;;1.60;1.10;;;13.70;98.20;;;;;;4979394;28;20853;-78
2022/10/26 02:00:01;;;;;;;1.57;1.00;;;13.80;98.20;;;;;;5008746;28;20499;-78
2022/10/26 02:02:52;;;;;;;1.57;1.03;;;13.80;98.20;;;;;;4974848;28;20583;-79
2022/10/26 02:05:32;;;;;;;1.57;1.00;;;13.80;98.20;;;;;;4990489;28;20458;-79
2022/10/26 02:08:11;;;;;;;1.50;1.00;;;13.80;98.20;;;;;;4968219;28;20784;-79
2022/10/26 02:10:47;;;;;;;1.57;1.10;;;13.80;98.20;;;;;;4987527;28;20973;-77
2022/10/26 02:13:20;;;;;;;1.57;1.00;;;13.80;98.20;;;;;;4943870;28;20485;-77
2022/10/26 02:15:54;;;;;;;1.60;1.10;;;13.90;98.20;;;;;;4970084;28;20557;-78
2022/10/26 02:18:31;;;;;;;1.60;1.00;;;13.90;98.20;;;;;;4967415;28;20494;-78
2022/10/26 02:21:03;;;;;;;1.60;1.10;;;13.90;98.20;;;;;;4944910;28;20497;-79
2022/10/26 02:23:35;;;;;;;1.60;1.00;;;13.90;98.20;;;;;;4981682;28;20981;-79
2022/10/26 02:26:05;;;;;;;1.60;1.10;;;13.90;98.20;;;;;;4981744;28;20489;-79
2022/10/26 02:28:36;;;;;;;1.60;1.00;;;13.90;98.20;;;;;;4990256;28;20499;-79
2022/10/26 02:31:07;;;;;;;1.60;1.00;;;14.00;98.20;;;;;;4980156;28;20491;-79
2022/10/26 02:33:40;;;;;;;1.57;1.00;;;14.00;98.20;;;;;;4985750;28;20457;-78
2022/10/26 02:36:32;;;;;;;1.60;1.10;;;14.00;98.20;;;;;;4981914;28;20477;-78
2022/10/26 02:39:00;;;;;;;1.57;1.00;;;14.00;98.20;;;;;;4992584;28;20828;-78
2022/10/26 02:41:29;;;;;;;1.60;1.30;;;14.00;98.20;;;;;;4981514;28;20481;-78
2022/10/26 02:44:04;;;;;;;1.57;1.00;;;14.10;98.20;;;;;;4999148;28;20469;-79
2022/10/26 02:46:32;;;;;;;1.60;1.00;;;14.10;98.20;;;;;;4979488;28;20493;-78
2022/10/26 02:49:01;;;;;;;1.57;1.00;;;14.10;98.20;;;;;;4992374;28;20499;-79
2022/10/26 02:51:34;;;;;;;1.60;1.07;;;14.10;98.20;;;;;;4983337;28;20555;-79
2022/10/26 02:54:10;;;;;;;1.60;1.00;;;14.10;98.20;;;;;;4993408;28;20469;-78
2022/10/26 02:56:46;;;;;;;1.60;1.00;;;14.10;98.20;;;;;;4984364;28;20502;-79
2022/10/26 02:59:15;;;;;;;1.53;1.00;;;14.10;98.20;;;;;;4982483;28;20504;-79
2022/10/26 03:01:44;;;;;;;1.60;1.00;;;14.20;98.20;;;;;;4971398;28;20938;-78
2022/10/26 03:04:12;;;;;;;1.60;1.10;;;14.20;98.20;;;;;;4991856;28;20468;-78
2022/10/26 03:06:39;;;;;;;1.60;1.10;;;14.20;98.20;;;;;;4978138;28;20489;-78
2022/10/26 03:09:06;;;;;;;1.60;1.10;;;14.20;98.20;;;;;;4981814;28;20579;-78
2022/10/26 03:11:34;;;;;;;1.53;0.90;;;14.20;98.20;;;;;;4977846;28;20524;-78
2022/10/26 03:14:01;;;;;;;1.57;1.00;;;14.20;98.20;;;;;;4991641;28;20560;-78
2022/10/26 03:16:28;;;;;;;1.60;1.10;;;14.20;98.20;;;;;;4980480;28;20496;-78
2022/10/26 03:18:55;;;;;;;1.60;1.00;;;14.20;98.20;;;;;;4989339;28;20492;-79
2022/10/26 03:21:23;;;;;;;1.57;1.03;;;14.20;98.20;;;;;;4980574;28;20512;-79
2022/10/26 03:23:58;;;;;;;1.53;1.00;;;14.30;98.20;;;;;;4994885;28;20531;-77
2022/10/26 03:26:25;;;;;;;1.60;1.00;;;14.30;98.20;;;;;;4981731;28;20918;-78
2022/10/26 03:28:52;;;;;;;1.57;1.00;;;14.30;98.20;;;;;;4992019;28;20469;-78
2022/10/26 03:31:19;;;;;;;1.60;1.10;;;14.30;98.20;;;;;;4981287;28;20564;-78
2022/10/26 03:33:46;;;;;;;1.60;1.03;;;14.30;98.20;;;;;;4995709;28;20469;-78
2022/10/26 03:36:13;;;;;;;1.57;1.00;;;14.30;98.20;;;;;;4982069;28;20481;-79
2022/10/26 03:38:42;;;;;;;1.60;1.00;;;14.30;98.20;;;;;;5004541;28;20681;-78
2022/10/26 03:41:09;;;;;;;1.50;1.00;;;14.30;98.20;;;;;;4981771;28;20527;-78
2022/10/26 03:43:39;;;;;;;1.53;1.00;;;14.30;98.20;;;;;;5004220;28;20461;-78
2022/10/26 03:46:06;;;;;;;1.53;1.00;;;14.40;98.20;;;;;;4984201;28;20490;-78
2022/10/26 03:48:34;;;;;;;1.60;1.10;;;14.40;98.20;;;;;;4989035;28;20469;-78
2022/10/26 03:51:01;;;;;;;1.53;1.00;;;14.40;98.20;;;;;;4980550;28;20469;-78
2022/10/26 03:53:28;;;;;;;1.53;1.00;;;14.40;98.20;;;;;;4991042;28;20489;-78
2022/10/26 03:55:57;;;;;;;1.60;1.00;;;14.50;98.20;;;;;;4981826;28;20493;-77
2022/10/26 03:58:24;;;;;;;1.60;1.00;;;14.50;98.20;;;;;;4995916;28;20465;-78
2022/10/26 04:00:51;;;;;;;1.60;1.10;;;14.50;98.20;;;;;;4978670;28;20469;-78
2022/10/26 04:03:19;;;;;;;1.50;1.00;;;14.50;98.20;;;;;;5020703;28;20868;-78
2022/10/26 04:05:46;;;;;;;1.53;1.00;;;14.50;98.20;;;;;;5010650;28;20494;-79
2022/10/26 04:08:13;;;;;;;1.60;1.10;;;14.50;98.20;;;;;;4997678;28;20480;-79
2022/10/26 04:10:41;;;;;;;1.60;1.10;;;14.50;98.20;;;;;;4981307;28;21042;-78
2022/10/26 04:13:11;;;;;;;1.53;1.00;;;14.50;98.20;;;;;;4975547;28;20470;-79
2022/10/26 04:15:38;;;;;;;1.57;0.90;;;14.50;98.20;;;;;;4994496;28;20489;-78
2022/10/26 04:18:06;;;;;;;1.60;1.10;;;14.50;98.20;;;;;;4977611;28;20484;-78
2022/10/26 04:20:35;;;;;;;1.53;0.97;;;14.60;98.20;;;;;;5009765;28;20507;-78
2022/10/26 04:23:05;;;;;;;1.60;1.00;;;14.60;98.20;;;;;;5000555;28;20484;-78
2022/10/26 04:25:36;;;;;;;1.60;1.00;;;14.60;98.20;;;;;;4995705;28;20499;-78
2022/10/26 04:28:05;;;;;;;3.23;2.93;;;14.60;98.20;;;;;;5014816;28;20475;-78
2022/10/26 04:30:35;;;;;;;1.53;0.97;;;14.60;98.20;;;;;;4985862;28;20492;-78
2022/10/26 04:33:05;;;;;;;1.53;0.97;;;14.60;98.20;;;;;;4976104;28;20478;-79
2022/10/26 04:35:34;;;;;;;1.60;1.00;;;14.60;98.20;;;;;;4986867;28;20476;-78
2022/10/26 04:38:03;;;;;;;1.60;1.00;;;14.60;98.20;;;;;;4998925;28;20483;-77
2022/10/26 04:40:31;;;;;;;1.53;1.00;;;14.70;98.20;;;;;;4999973;28;20556;-76
2022/10/26 04:42:58;;;;;;;1.57;1.00;;;14.70;98.20;;;;;;4976331;28;20558;-78
2022/10/26 04:45:27;;;;;;;1.57;1.00;;;14.70;98.20;;;;;;4991838;28;20500;-79
2022/10/26 04:48:03;;;;;;;1.50;1.00;;;14.70;98.20;;;;;;4967611;28;20482;-77
2022/10/26 04:50:31;;;;;;;1.50;1.00;;;14.70;98.20;;;;;;4975667;28;20462;-77
2022/10/26 04:53:10;;;;;;;1.60;1.00;;;14.80;98.20;;;;;;4965122;28;20751;-77
2022/10/26 04:55:38;;;;;;;1.57;1.00;;;14.80;98.20;;;;;;4973807;28;20513;-76
2022/10/26 04:58:05;;;;;;;1.60;1.00;;;14.80;98.20;;;;;;4969255;28;20489;-77
2022/10/26 05:00:33;;;;;;;1.53;1.00;;;14.80;98.20;;;;;;4976331;28;20458;-78
2022/10/26 05:03:04;;;;;;;1.60;1.00;;;14.80;98.20;;;;;;4965358;28;20931;-78
2022/10/26 05:05:36;;;;;;;1.60;1.00;;;14.80;98.20;;;;;;4979990;28;20458;-79
2022/10/26 05:08:05;;;;;;;1.60;1.00;;;14.80;98.20;;;;;;4969069;28;20595;-79
2022/10/26 05:10:32;;;;;;;1.60;1.10;;;14.80;98.20;;;;;;4973016;28;20764;-78
2022/10/26 05:13:06;;;;;;;1.50;1.00;;;14.80;98.20;;;;;;4963741;28;20477;-78
2022/10/26 05:15:36;;;;;;;1.53;1.00;;;14.90;98.20;;;;;;4985185;28;20741;-78
2022/10/26 05:18:08;;;;;;;1.57;1.00;;;14.90;98.20;;;;;;4965137;28;20673;-79
2022/10/26 05:20:36;;;;;;;1.57;1.00;;;14.90;98.20;;;;;;4973692;28;20466;-78
2022/10/26 05:23:06;;;;;;;1.50;1.00;;;14.90;98.20;;;;;;4964187;28;21075;-78
2022/10/26 05:25:36;;;;;;;1.57;1.00;;;14.90;98.20;;;;;;4973843;28;20513;-78
2022/10/26 05:28:06;;;;;;;1.60;1.00;;;14.90;98.20;;;;;;4977615;28;20481;-79
2022/10/26 05:30:34;;;;;;;1.57;1.00;;;14.90;98.20;;;;;;4972940;28;20457;-78
2022/10/26 05:33:03;;;;;;;1.60;1.10;;;14.90;98.20;;;;;;4967701;28;20492;-78
2022/10/26 05:35:31;;;;;;;1.50;1.00;;;14.90;98.20;;;;;;4980051;28;20486;-78
2022/10/26 05:37:59;;;;;;;1.53;1.00;;;14.90;98.20;;;;;;4969680;28;20781;-78
2022/10/26 05:40:27;;;;;;;1.60;1.10;;;15.00;98.20;;;;;;4980684;28;20464;-78
2022/10/26 05:43:00;;;;;;;1.60;1.00;;;15.00;98.20;;;;;;4965991;28;20562;-78
2022/10/26 05:45:28;;;;;;;1.50;1.00;;;15.00;98.20;;;;;;4981559;28;20481;-77
2022/10/26 05:47:59;;;;;;;1.60;1.10;;;15.00;98.20;;;;;;4988823;28;21021;-77
2022/10/26 05:50:26;;;;;;;1.60;1.00;;;15.00;98.20;;;;;;4990487;28;20488;-78
2022/10/26 05:52:55;;;;;;;1.57;1.00;;;15.00;98.20;;;;;;4984901;28;20481;-78
2022/10/26 05:55:30;;;;;;;1.60;1.00;;;15.00;98.20;;;;;;4990901;28;20487;-78
2022/10/26 05:57:58;;;;;;;1.53;1.00;;;15.10;98.20;;;;;;4987394;28;20495;-78
2022/10/26 06:00:42;;;;;;;1.57;1.00;;;15.10;98.20;;;;;;4992754;28;20577;-79
2022/10/26 06:03:23;;;;;;;1.70;1.53;;;15.10;98.20;;;;;;4968647;28;20534;-78
2022/10/26 06:05:59;;;;;;;1.53;1.00;;;15.20;98.20;;;;;;4986325;28;20606;-78
2022/10/26 06:08:41;;;;;;;1.53;1.00;;;15.20;98.20;;;;;;4987695;28;20465;-77
2022/10/26 06:11:10;;;;;;;1.57;1.00;;;15.20;98.20;;;;;;4966901;28;20504;-78
2022/10/26 06:13:38;;;;;;;1.53;1.00;;;15.30;98.20;;;;;;4980152;28;20461;-76
2022/10/26 06:16:25;;;;;;;1.60;1.00;;;15.30;98.20;;;;;;4972864;28;20481;-77
2022/10/26 06:19:04;;;;;;;1.60;1.10;;;15.30;98.20;;;;;;5011154;23;20511;-79
2022/10/26 06:21:55;;;;;;;1.60;1.17;;;15.30;98.20;;;;;;4973707;28;20569;-78
2022/10/26 06:24:30;;;;;;;1.60;1.10;;;15.30;98.20;;;;;;4988926;28;20513;-79
2022/10/26 06:27:03;;;;;;;1.60;1.10;;;15.30;98.20;;;;;;4980678;28;20919;-79
2022/10/26 06:29:42;;;;;;;1.53;1.00;;;15.20;98.20;;;;;;4982708;28;20605;-78
2022/10/26 06:32:10;;;;;;;1.60;1.00;;;15.20;98.20;;;;;;4969472;28;21172;-79
2022/10/26 06:34:42;;;;;;;1.60;1.00;;;15.20;98.20;;;;;;4969266;28;20838;-78
2022/10/26 06:37:11;;;;;;;1.57;1.00;;;15.30;98.20;;;;;;4966286;28;20485;-79
2022/10/26 06:39:43;;;;;;;1.60;0.90;;;15.30;98.20;;;;;;4983343;28;20572;-79
2022/10/26 06:42:11;;;;;;;1.57;1.00;;;15.30;98.20;;;;;;4964594;28;20522;-79
2022/10/26 06:44:39;;;;;;;1.60;1.00;;;15.30;98.20;;;;;;4979919;28;20461;-80
2022/10/26 06:47:10;;;;;;;1.60;1.00;;;15.40;98.20;;;;;;4973236;28;20566;-78
2022/10/26 06:49:40;;;;;;;1.60;1.00;;;15.40;98.20;;;;;;4985012;28;20489;-78
2022/10/26 06:52:16;;;;;;;1.53;0.97;;;15.40;98.20;;;;;;4973291;28;20489;-79
2022/10/26 06:54:51;;;;;;;1.53;1.00;;;15.40;98.20;;;;;;4973594;28;20462;-79
2022/10/26 06:57:19;;;;;;;1.57;1.00;;;15.40;98.20;;;;;;4974020;28;20457;-78
2022/10/26 06:59:51;;;;;;;1.60;1.00;;;15.40;98.20;;;;;;4984082;28;20655;-78
2022/10/26 07:02:18;;;;;;;1.57;1.00;;;15.40;98.20;;;;;;4967212;28;20478;-78
2022/10/26 07:04:46;;;;;;;1.57;1.00;;;15.40;98.20;;;;;;4970806;28;20466;-78
2022/10/26 07:07:16;;;;;;;1.57;1.00;;;15.40;98.20;;;;;;4959587;28;20478;-78
2022/10/26 07:09:43;;;;;;;1.60;1.00;;;15.40;98.20;;;;;;4984917;28;20535;-79
2022/10/26 07:12:12;;;;;;;1.83;1.60;;;15.40;98.20;;;;;;4974403;28;20485;-79
2022/10/26 07:14:39;;;;;;;1.53;0.90;;;15.50;98.20;;;;;;4980430;28;20466;-79
2022/10/26 07:17:07;;;;;;;1.53;0.90;;;15.50;98.20;;;;;;4969900;28;20485;-79
2022/10/26 07:19:34;;;;;;;1.57;1.00;;;15.60;98.20;;;;;;4989334;28;20484;-78
2022/10/26 07:22:01;;;;;;;1.57;1.00;;;15.60;98.20;;;;;;4988352;28;21075;-79
2022/10/26 07:24:28;;;;;;;1.60;1.00;;;15.70;98.20;;;;;;4995886;28;20469;-80
2022/10/26 07:26:57;;;;;;;7.43;1.67;;;15.70;98.20;;;;;;4989867;28;20492;-79
2022/10/26 07:29:27;;;;;;;1.60;1.00;;;15.80;98.20;;;;;;4997350;28;20488;-79
2022/10/26 07:31:54;;;;;;;1.60;1.10;;;15.90;98.20;;;;;;4981403;28;20933;-79
2022/10/26 07:34:22;;;;;;;1.60;1.00;;;16.00;98.20;;;;;;4992372;28;20974;-79
2022/10/26 07:36:50;;;;;;;1.60;1.00;;;16.00;98.20;;;;;;4989828;28;20563;-77
2022/10/26 07:39:17;;;;;;;1.60;0.90;;;16.00;98.20;;;;;;4998536;28;20579;-78
2022/10/26 07:41:45;;;;;;;1.60;1.00;;;16.00;98.20;;;;;;4984657;28;20989;-79
2022/10/26 07:44:13;;;;;;;1.60;1.00;;;16.00;98.20;;;;;;4997095;28;20500;-78
2022/10/26 07:46:42;;;;;;;1.97;1.53;;;16.10;98.20;;;;;;4985295;28;20510;-78
2022/10/26 07:49:09;;;;;;;1.60;0.90;;;16.10;98.20;;;;;;4996654;28;20484;-79
2022/10/26 07:51:36;;;;;;;1.60;1.00;;;16.20;98.20;;;;;;4978237;28;20579;-79
2022/10/26 07:54:04;;;;;;;1.60;0.93;;;16.30;98.20;;;;;;4989215;28;20496;-81
2022/10/26 07:56:31;;;;;;;1.70;1.23;;;16.30;98.20;;;;;;4986594;28;21075;-81
2022/10/26 07:58:59;;;;;;;1.60;0.90;;;16.40;98.20;;;;;;5001480;28;20484;-79
2022/10/26 08:01:26;;;;;;;1.60;1.00;;;16.50;98.20;;;;;;4979300;28;20476;-78
2022/10/26 08:03:55;;;;;;;1.60;1.00;;;16.50;98.20;;;;;;4990522;28;20520;-83
2022/10/26 08:06:23;;;;;;;1.60;1.00;;;16.60;98.20;;;;;;4981669;28;20516;-81
2022/10/26 08:08:51;;;;;;;1.60;1.00;;;16.60;98.20;;;;;;4993118;28;20900;-79
2022/10/26 08:11:19;;;;;;;1.60;1.00;;;16.60;98.20;;;;;;4986559;28;20492;-79
2022/10/26 08:13:46;;;;;;;1.60;0.90;;;16.70;98.20;;;;;;5002648;28;20853;-79
2022/10/26 08:16:14;;;;;;;1.60;0.90;;;16.70;98.20;;;;;;4985945;28;20500;-80
2022/10/26 08:18:41;;;;;;;1.60;1.00;;;16.80;98.20;;;;;;5003985;28;20501;-79
2022/10/26 08:21:12;;;;;;;1.60;0.90;;;16.90;98.20;;;;;;4977841;28;20544;-79
2022/10/26 08:23:39;;;;;;;1.70;1.20;;;16.90;98.20;;;;;;4984656;28;20959;-78
2022/10/26 08:26:07;;;;;;;1.50;0.90;;;17.00;98.20;;;;;;4985595;28;20847;-79
2022/10/26 08:28:34;;;;;;;1.60;1.00;;;17.20;98.20;;;;;;4988528;28;20543;-78
2022/10/26 08:31:01;;;;;;;1.60;1.17;;;17.20;98.20;;;;;;4987761;28;20469;-78
2022/10/26 08:33:28;;;;;;;1.60;1.00;;;17.30;98.20;;;;;;4988574;28;20469;-78
2022/10/26 08:35:57;;;;;;;1.53;0.90;;;17.40;98.20;;;;;;4988077;28;20469;-78
2022/10/26 08:38:26;;;;;;;1.60;1.00;;;17.30;98.20;;;;;;4988323;28;20489;-79
2022/10/26 08:40:56;;;;;;;1.60;0.90;;;17.30;98.20;;;;;;4987735;28;20460;-77
2022/10/26 08:43:29;;;;;;;1.60;0.90;;;17.30;98.20;;;;;;4987193;28;20493;-79
2022/10/26 08:46:01;;;;;;;1.60;0.90;;;17.20;98.20;;;;;;4992199;28;20533;-79
2022/10/26 08:48:33;;;;;;;1.60;1.00;;;17.20;98.20;;;;;;4988226;28;20612;-77
2022/10/26 08:51:10;;;;;;;1.60;1.00;;;17.10;98.20;;;;;;4986889;28;20457;-79
2022/10/26 08:53:43;;;;;;;1.60;0.90;;;17.10;98.20;;;;;;4987717;28;20463;-81
2022/10/26 08:56:15;;;;;;;1.60;1.00;;;17.10;98.20;;;;;;4989975;28;20465;-80
2022/10/26 08:58:48;;;;;;;1.57;0.90;;;17.00;98.20;;;;;;4990723;28;20811;-80
2022/10/26 09:01:16;;;;;;;1.60;0.90;;;17.00;98.20;;;;;;4989391;28;20520;-77
2022/10/26 09:03:43;;;;;;;1.60;1.00;;;17.10;98.20;;;;;;4972566;28;20486;-78
2022/10/26 09:06:20;;;;;;;1.53;0.90;;;17.20;98.20;;;;;;4973151;28;21265;-79
2022/10/26 09:09:01;;;;;;;1.60;1.00;;;17.30;98.20;;;;;;4973578;28;20556;-79
2022/10/26 09:11:45;;;;;;;1.57;1.00;;;17.60;98.20;;;;;;4973270;28;20468;-79
2022/10/26 09:14:19;;;;;;;1.53;1.00;;;17.80;98.20;;;;;;4973741;28;20524;-78
2022/10/26 09:16:59;;;;;;;1.57;0.90;;;17.80;98.20;;;;;;4973261;28;20462;-79
2022/10/26 09:19:45;;;;;;;1.60;1.00;;;17.70;98.20;;;;;;4980769;28;20500;-79
2022/10/26 09:22:20;;;;;;;1.60;0.90;;;17.90;98.20;;;;;;4987177;28;20460;-79
2022/10/26 09:24:53;;;;;;;1.60;0.90;;;18.10;98.20;;;;;;4992829;28;20488;-80
2022/10/26 09:27:26;;;;;;;1.60;1.00;;;18.30;98.20;;;;;;4992715;28;20468;-80
2022/10/26 09:29:54;;;;;;;1.57;0.90;;;18.30;98.20;;;;;;4994252;28;20540;-79
2022/10/26 09:32:26;;;;;;;1.60;0.90;;;18.40;98.20;;;;;;4992746;28;20483;-79
2022/10/26 09:34:56;;;;;;;1.60;1.00;;;18.60;98.20;;;;;;4993787;28;20467;-81
2022/10/26 09:37:27;;;;;;;1.60;0.90;;;18.70;98.20;;;;;;4993661;28;20970;-79
2022/10/26 09:40:08;;;;;;;1.60;0.90;;;18.90;98.20;;;;;;4993851;28;20484;-80
2022/10/26 09:42:40;;;;;;;1.60;0.90;;;19.10;98.20;;;;;;4991269;28;20469;-81
2022/10/26 09:45:16;;;;;;;1.60;1.00;;;19.20;98.20;;;;;;4993115;28;20524;-79
2022/10/26 09:47:50;;;;;;;1.60;1.00;;;19.40;98.20;;;;;;4992971;28;20467;-79
2022/10/26 09:50:23;;;;;;;1.57;0.90;;;19.40;98.20;;;;;;4987677;28;20464;-79
2022/10/26 09:52:50;;;;;;;2.70;1.87;;;19.40;98.20;;;;;;4974684;28;20525;-77
2022/10/26 09:55:21;;;;;;;1.53;0.90;;;19.40;98.20;;;;;;4972436;28;20473;-79
2022/10/26 09:57:53;;;;;;;1.60;1.00;;;19.60;98.20;;;;;;4972495;28;20603;-80
2022/10/26 10:00:23;;;;;;;1.50;0.90;;;19.60;98.20;;;;;;4972683;28;20465;-76
2022/10/26 10:02:52;;;;;;;1.60;0.90;;;19.70;98.20;;;;;;4971325;28;21022;-77
2022/10/26 10:05:25;;;;;;;1.60;1.00;;;19.80;98.20;;;;;;4972566;28;20880;-78
2022/10/26 10:07:54;;;;;;;1.57;0.90;;;20.00;98.20;;;;;;4972969;28;20489;-78
2022/10/26 10:10:23;;;;;;;1.60;1.00;;;20.20;98.20;;;;;;4982312;28;20520;-78
2022/10/26 10:12:52;;;;;;;1.60;0.90;;;20.30;98.20;;;;;;4978005;28;20494;-78
2022/10/26 10:15:22;;;;;;;1.60;1.00;;;20.40;98.20;;;;;;4975010;28;20493;-79
2022/10/26 10:17:52;;;;;;;1.60;0.90;;;20.50;98.20;;;;;;4973622;28;20466;-80
2022/10/26 10:20:22;;;;;;;1.60;0.90;;;20.50;98.20;;;;;;4963585;28;20474;-79
2022/10/26 10:22:57;;;;;;;1.60;0.90;;;20.50;98.20;;;;;;4971504;28;20469;-78
2022/10/26 10:25:33;;;;;;;1.60;0.90;;;20.50;98.20;;;;;;4974390;28;20468;-77
2022/10/26 10:28:00;;;;;;;1.60;1.00;;;20.80;98.20;;;;;;4963807;28;20880;-78
2022/10/26 10:30:32;;;;;;;1.60;0.90;;;20.90;98.20;;;;;;4972972;28;20466;-79
2022/10/26 10:33:07;;;;;;;1.60;0.90;;;20.90;98.20;;;;;;4964770;28;20466;-78
2022/10/26 10:35:35;;;;;;;1.60;0.90;;;20.80;98.20;;;;;;4952697;29;20462;-78
2022/10/26 10:38:03;;;;;;;1.60;0.90;;;20.80;98.20;;;;;;4952313;28;20495;-78
2022/10/26 10:40:32;;;;;;;1.60;0.90;;;20.80;98.20;;;;;;4953066;28;20471;-78
2022/10/26 10:43:06;;;;;;;1.57;0.90;;;21.00;98.20;;;;;;4950549;29;21039;-78
2022/10/26 10:45:36;;;;;;;1.60;0.90;;;21.20;98.20;;;;;;4953947;28;20470;-79
2022/10/26 10:48:05;;;;;;;1.60;0.90;;;21.40;98.20;;;;;;4952759;28;20497;-77
2022/10/26 10:50:35;;;;;;;1.60;0.90;;;21.60;98.20;;;;;;4963852;28;20462;-77
2022/10/26 10:53:18;;;;;;;1.60;0.90;;;21.90;98.20;;;;;;4970788;28;20493;-78
2022/10/26 10:55:59;;;;;;;1.60;0.90;;;22.10;98.00;;;;;;4971263;28;20537;-78
2022/10/26 10:58:33;;;;;;;1.57;0.90;;;22.20;97.40;;;;;;4970968;28;20987;-78
2022/10/26 11:01:01;;;;;;;1.60;0.90;;;22.30;97.10;;;;;;4970221;28;20906;-78
2022/10/26 11:03:40;;;;;;;1.60;0.90;;;22.40;97.50;;;;;;4971539;28;20486;-78
2022/10/26 11:06:16;;;;;;;1.60;0.90;;;22.50;97.20;;;;;;4972576;28;20481;-79
2022/10/26 11:08:49;;;;;;;1.60;0.90;;;22.80;97.60;;;;;;4971582;28;20572;-80
2022/10/26 11:11:21;;;;;;;1.57;0.90;;;22.90;96.90;;;;;;4970421;28;20505;-78
2022/10/26 11:13:56;;;;;;;1.60;0.90;;;23.00;96.10;;;;;;4970586;28;20513;-78
2022/10/26 11:16:29;;;;;;;1.60;0.90;;;23.10;96.00;;;;;;4970822;28;20461;-78
2022/10/26 11:19:01;;;;;;;1.60;0.90;;;23.20;95.50;;;;;;4974287;28;20960;-78
2022/10/26 11:21:30;;;;;;;1.57;0.90;;;23.30;95.60;;;;;;4975972;28;20473;-78
2022/10/26 11:24:09;;;;;;;1.60;0.90;;;23.30;95.40;;;;;;4970463;28;20509;-78
2022/10/26 11:26:44;;;;;;;1.53;0.90;;;23.20;94.50;;;;;;4970588;28;20865;-78
2022/10/26 11:29:22;;;;;;;1.53;0.90;;;23.30;94.80;;;;;;4969894;28;20524;-78
2022/10/26 11:31:54;;;;;;;1.60;0.90;;;23.40;94.30;;;;;;4970805;28;20454;-78
2022/10/26 11:34:30;;;;;;;1.70;1.30;;;23.50;95.10;;;;;;4988611;28;20465;-78
2022/10/26 11:37:04;;;;;;;1.57;0.90;;;23.60;94.30;;;;;;4989727;28;20951;-78
2022/10/26 11:39:38;;;;;;;1.60;0.90;;;23.60;94.00;;;;;;4989807;28;21029;-78
2022/10/26 11:42:18;;;;;;;1.57;0.90;;;23.70;93.30;;;;;;4988050;28;20468;-79
2022/10/26 11:44:53;;;;;;;1.57;0.90;;;23.70;93.50;;;;;;4990915;28;20499;-77
2022/10/26 11:47:29;;;;;;;1.57;0.90;;;23.80;93.60;;;;;;4990979;28;20460;-77
2022/10/26 11:50:13;;;;;;;1.60;1.00;;;23.90;93.90;;;;;;4982385;28;20536;-77
2022/10/26 11:52:45;;;;;;;1.53;0.90;;;24.00;92.90;;;;;;5014306;23;20883;-77
2022/10/26 11:55:13;;;;;;;1.60;0.90;;;24.10;94.00;;;;;;5005863;28;20499;-77
2022/10/26 11:57:44;;;;;;;1.60;0.90;;;24.10;92.20;;;;;;5010557;28;20559;-77
2022/10/26 12:00:18;;;;;;;1.60;0.90;;;24.20;92.40;;;;;;5009659;28;20464;-76
2022/10/26 12:02:50;;;;;;;1.57;0.90;;;24.10;92.30;;;;;;4993089;28;20479;-76
2022/10/26 12:05:24;;;;;;;1.60;0.90;;;24.10;92.90;;;;;;5011939;28;20481;-76
2022/10/26 12:07:54;;;;;;;1.60;0.90;;;24.00;91.60;;;;;;5007906;28;20793;-76
2022/10/26 12:10:27;;;;;;;1.60;0.80;;;24.00;92.70;;;;;;4994811;28;20477;-77
2022/10/26 12:13:02;;;;;;;1.60;0.90;;;24.10;92.20;;;;;;4997388;28;20496;-77
2022/10/26 12:15:35;;;;;;;1.57;0.90;;;24.10;92.60;;;;;;4997971;28;20476;-75
2022/10/26 12:18:11;;;;;;;1.53;0.90;;;24.10;92.90;;;;;;5001366;28;20464;-77
2022/10/26 12:21:01;;;;;;;1.53;0.90;;;24.20;92.30;;;;;;5000016;28;20468;-76
2022/10/26 12:23:31;;;;;;;1.60;0.90;;;24.20;91.90;;;;;;5002065;28;20881;-76
2022/10/26 12:26:37;;;;;;;1.50;0.80;;;24.10;91.90;;;;;;5005358;28;20472;-76
2022/10/26 12:29:35;;;;;;;1.60;0.90;;;24.10;92.80;;;;;;4993882;28;21042;-76
2022/10/26 12:32:03;;;;;;;1.53;0.90;;;23.90;92.80;;;;;;5009573;28;21032;-76
2022/10/26 12:34:59;;;;;;;1.60;0.90;;;24.00;93.40;;;;;;5009487;28;20972;-76
2022/10/26 12:37:35;;;;;;;1.60;0.90;;;24.00;92.40;;;;;;5002080;28;20468;-76
2022/10/26 12:40:42;;;;;;;1.53;0.90;;;24.00;93.30;;;;;;5008434;28;20467;-76
2022/10/26 12:43:37;;;;;;;1.60;0.90;;;24.10;93.10;;;;;;5007534;28;20875;-77
2022/10/26 12:46:41;;;;;;;1.60;0.90;;;24.10;93.50;;;;;;5006253;28;20821;-76
2022/10/26 12:49:56;;;;;;;1.57;0.90;;;24.10;92.60;;;;;;5004215;28;20678;-75
2022/10/26 12:52:40;;;;;;;1.57;0.90;;;24.10;92.10;;;;;;4993813;28;20576;-76
2022/10/26 12:55:46;;;;;;;1.50;0.90;;;24.10;93.10;;;;;;4995141;28;20472;-77
2022/10/26 12:58:47;;;;;;;1.53;0.90;;;24.10;93.30;;;;;;5007183;28;20460;-76
2022/10/26 13:01:48;;;;;;;1.57;0.90;;;24.10;93.00;;;;;;5008318;28;20491;-76
2022/10/26 13:04:29;;;;;;;1.60;0.90;;;24.00;92.50;;;;;;5010325;28;21061;-77
2022/10/26 13:07:20;;;;;;;1.57;0.90;;;23.80;92.80;;;;;;5010558;28;20456;-77
2022/10/26 13:09:57;;;;;;;1.53;0.90;;;23.80;93.60;;;;;;5010902;28;20494;-77
2022/10/26 13:12:27;;;;;;;1.50;0.90;;;23.70;93.80;;;;;;5006749;28;20516;-77
2022/10/26 13:15:01;;;;;;;1.53;0.90;;;23.70;94.30;;;;;;5009149;28;20471;-77